createdAt,value
2022-11-10T00:02:43.850Z,13.67
2022-11-10T00:05:29.845Z,13.69
2022-11-10T00:08:14.956Z,13.65
2022-11-10T00:11:06.530Z,13.71
2022-11-10T00:14:15.270Z,13.69
2022-11-10T00:17:06.846Z,13.63
2022-11-10T00:19:52.582Z,13.67
2022-11-10T00:22:39.222Z,13.62
2022-11-10T00:25:25.490Z,13.54
2022-11-10T00:28:10.863Z,13.50
2022-11-10T00:30:56.084Z,13.55
2022-11-10T00:33:43.702Z,13.51
2022-11-10T00:36:29.200Z,13.52
2022-11-10T00:39:14.691Z,13.41
2022-11-10T00:41:59.956Z,13.48
2022-11-10T00:44:45.452Z,13.54
2022-11-10T00:47:30.774Z,13.53
2022-11-10T00:50:16.111Z,13.59
2022-11-10T00:53:01.366Z,13.56
2022-11-10T00:55:46.653Z,13.64
2022-11-10T00:58:32.013Z,13.64
2022-11-10T01:01:19.286Z,13.70
2022-11-10T01:04:05.136Z,13.70
2022-11-10T01:06:51.940Z,13.74
2022-11-10T01:09:38.228Z,13.78
2022-11-10T01:12:23.106Z,13.81
2022-11-10T01:15:12.002Z,13.82
2022-11-10T01:17:57.293Z,13.76
2022-11-10T01:20:42.716Z,13.83
2022-11-10T01:23:28.179Z,13.78
2022-11-10T01:26:13.575Z,13.73
2022-11-10T01:29:00.123Z,13.78
2022-11-10T01:31:46.098Z,13.80
2022-11-10T01:34:31.498Z,13.70
2022-11-10T01:37:16.799Z,13.65
2022-11-10T01:40:02.507Z,13.70
2022-11-10T01:42:54.718Z,13.72
2022-11-10T01:45:48.934Z,13.60
2022-11-10T01:48:54.259Z,13.62
2022-11-10T01:51:51.201Z,13.67
2022-11-10T01:54:47.083Z,13.59
2022-11-10T01:57:32.935Z,13.57
2022-11-10T02:00:19.035Z,13.67
2022-11-10T02:03:11.535Z,13.63
2022-11-10T02:05:56.969Z,13.64
2022-11-10T02:08:43.266Z,13.53
2022-11-10T02:11:29.363Z,13.60
2022-11-10T02:14:15.744Z,13.64
2022-11-10T02:17:01.076Z,13.64
2022-11-10T02:19:46.453Z,13.65
2022-11-10T02:22:32.276Z,13.53
2022-11-10T02:25:22.381Z,13.51
2022-11-10T02:28:07.994Z,13.54
2022-11-10T02:30:54.002Z,13.55
2022-11-10T02:33:39.674Z,13.59
2022-11-10T02:36:25.024Z,13.61
2022-11-10T02:39:10.387Z,13.58
2022-11-10T02:41:55.686Z,13.58
2022-11-10T02:44:41.763Z,13.55
2022-11-10T02:47:27.222Z,13.61
2022-11-10T02:50:12.516Z,13.65
2022-11-10T02:52:57.803Z,13.56
2022-11-10T02:55:43.312Z,13.51
2022-11-10T02:58:28.589Z,13.59
2022-11-10T03:01:13.963Z,13.59
2022-11-10T03:03:59.275Z,13.57
2022-11-10T03:06:44.536Z,13.63
2022-11-10T03:09:29.954Z,13.64
2022-11-10T03:12:15.217Z,13.60
2022-11-10T03:15:00.566Z,13.67
2022-11-10T03:17:45.942Z,13.63
2022-11-10T03:20:31.439Z,13.61
2022-11-10T03:23:18.274Z,13.66
2022-11-10T03:26:06.901Z,13.61
2022-11-10T03:28:52.369Z,13.46
2022-11-10T03:31:37.684Z,13.60
2022-11-10T03:34:22.917Z,13.70
2022-11-10T03:37:08.154Z,13.69
2022-11-10T03:39:53.356Z,13.57
2022-11-10T03:42:43.282Z,13.58
2022-11-10T03:45:28.918Z,13.71
2022-11-10T03:48:14.202Z,13.67
2022-11-10T03:50:59.539Z,13.68
2022-11-10T03:53:44.718Z,13.66
2022-11-10T03:56:29.940Z,13.66
2022-11-10T03:59:15.288Z,13.65
2022-11-10T04:02:00.675Z,13.63
2022-11-10T04:05:04.444Z,13.57
2022-11-10T04:08:15.934Z,13.56
2022-11-10T04:11:01.412Z,13.51
2022-11-10T04:14:05.331Z,13.40
2022-11-10T04:16:50.681Z,13.30
2022-11-10T04:19:36.127Z,13.36
2022-11-10T04:22:41.317Z,13.38
2022-11-10T04:25:26.890Z,13.43
2022-11-10T04:28:12.175Z,13.52
2022-11-10T04:30:57.511Z,13.52
2022-11-10T04:33:43.620Z,13.34
2022-11-10T04:36:31.261Z,13.36
2022-11-10T04:39:16.442Z,13.37
2022-11-10T04:42:03.079Z,13.33
2022-11-10T04:44:48.755Z,13.35
2022-11-10T04:47:34.021Z,13.31
2022-11-10T04:50:19.374Z,13.33
2022-11-10T04:53:04.579Z,13.35
2022-11-10T04:55:49.901Z,13.27
2022-11-10T04:58:35.190Z,13.20
2022-11-10T05:01:23.365Z,13.24
2022-11-10T05:04:08.535Z,13.12
2022-11-10T05:06:54.150Z,13.09
2022-11-10T05:09:39.807Z,13.05
2022-11-10T05:12:25.459Z,13.05
2022-11-10T05:15:11.089Z,13.00
2022-11-10T05:17:56.795Z,13.10
2022-11-10T05:20:41.961Z,13.11
2022-11-10T05:23:39.333Z,13.05
2022-11-10T05:26:24.701Z,13.06
2022-11-10T05:29:09.811Z,12.96
2022-11-10T05:31:55.135Z,13.00
2022-11-10T05:34:40.403Z,12.84
2022-11-10T05:37:25.752Z,12.93
2022-11-10T05:40:11.249Z,12.91
2022-11-10T05:42:56.295Z,12.91
2022-11-10T05:45:41.590Z,12.85
2022-11-10T05:48:27.011Z,12.83
2022-11-10T05:51:12.403Z,12.83
2022-11-10T05:53:57.800Z,12.74
2022-11-10T05:56:43.150Z,12.73
2022-11-10T05:59:28.330Z,12.66
2022-11-10T06:02:13.649Z,12.69
2022-11-10T06:04:59.143Z,12.62
2022-11-10T06:07:44.427Z,12.63
2022-11-10T06:10:29.878Z,12.65
2022-11-10T06:13:15.050Z,12.62
2022-11-10T06:16:00.628Z,12.60
2022-11-10T06:18:45.766Z,12.48
2022-11-10T06:21:31.103Z,12.49
2022-11-10T06:24:16.408Z,12.42
2022-11-10T06:27:01.868Z,12.39
2022-11-10T06:29:47.140Z,12.37
2022-11-10T06:32:33.930Z,12.40
2022-11-10T06:35:20.362Z,12.36
2022-11-10T06:38:08.247Z,12.30
2022-11-10T06:40:53.755Z,12.20
2022-11-10T06:43:39.404Z,12.26
2022-11-10T06:46:24.849Z,12.22
2022-11-10T06:49:10.133Z,12.31
2022-11-10T06:51:55.374Z,12.36
2022-11-10T06:54:40.645Z,12.34
2022-11-10T06:57:26.004Z,12.34
2022-11-10T07:00:12.043Z,12.16
2022-11-10T07:03:00.421Z,12.28
2022-11-10T07:05:45.762Z,12.34
2022-11-10T07:08:30.911Z,12.38
2022-11-10T07:11:16.438Z,12.38
2022-11-10T07:14:02.127Z,12.45
2022-11-10T07:16:47.390Z,12.52
2022-11-10T07:19:32.720Z,12.53
2022-11-10T07:22:18.308Z,12.52
2022-11-10T07:25:04.236Z,12.51
2022-11-10T07:28:00.507Z,12.64
2022-11-10T07:30:45.565Z,12.66
2022-11-10T07:33:30.872Z,12.73
2022-11-10T07:36:16.134Z,12.71
2022-11-10T07:39:01.576Z,12.72
2022-11-10T07:41:52.123Z,12.74
2022-11-10T07:44:37.786Z,12.84
2022-11-10T07:47:24.377Z,12.88
2022-11-10T07:50:10.836Z,12.86
2022-11-10T07:53:25.841Z,12.83
2022-11-10T07:56:11.091Z,12.81
2022-11-10T07:58:56.514Z,12.62
2022-11-10T08:01:41.981Z,12.67
2022-11-10T08:04:27.072Z,12.96
2022-11-10T08:07:12.450Z,13.16
2022-11-10T08:09:58.280Z,13.18
2022-11-10T08:12:43.652Z,13.25
2022-11-10T08:15:29.933Z,13.48
2022-11-10T08:18:20.710Z,13.75
2022-11-10T08:21:06.737Z,13.77
2022-11-10T08:23:52.404Z,14.12
2022-11-10T08:26:37.711Z,14.34
2022-11-10T08:29:23.234Z,14.45
2022-11-10T08:32:09.039Z,14.65
2022-11-10T08:34:54.448Z,14.86
2022-11-10T08:37:39.912Z,14.89
2022-11-10T08:40:27.958Z,15.13
2022-11-10T08:43:13.977Z,15.37
2022-11-10T08:45:59.582Z,15.56
2022-11-10T08:48:44.916Z,15.55
2022-11-10T08:51:33.677Z,15.72
2022-11-10T08:54:21.502Z,15.69
2022-11-10T08:57:06.928Z,15.87
2022-11-10T08:59:53.520Z,16.11
2022-11-10T09:02:38.882Z,16.21
2022-11-10T09:05:24.351Z,16.29
2022-11-10T09:08:09.770Z,16.50
2022-11-10T09:10:54.890Z,16.72
2022-11-10T09:13:40.140Z,16.96
2022-11-10T09:16:25.542Z,17.10
2022-11-10T09:19:14.245Z,16.87
2022-11-10T09:22:02.019Z,17.05
2022-11-10T09:24:47.343Z,17.12
2022-11-10T09:27:36.338Z,17.35
2022-11-10T09:30:21.464Z,17.42
2022-11-10T09:33:07.262Z,17.51
2022-11-10T09:35:57.107Z,17.50
2022-11-10T09:38:42.492Z,17.31
2022-11-10T09:41:30.140Z,17.28
2022-11-10T09:44:33.698Z,17.24
2022-11-10T09:47:50.555Z,17.61
2022-11-10T09:50:49.897Z,17.83
2022-11-10T09:53:41.325Z,17.94
2022-11-10T09:56:32.906Z,18.19
2022-11-10T09:59:29.615Z,18.29
2022-11-10T10:02:29.865Z,18.44
2022-11-10T10:05:51.640Z,18.36
2022-11-10T10:09:06.857Z,18.14
2022-11-10T10:11:56.159Z,18.33
2022-11-10T10:14:56.928Z,18.41
2022-11-10T10:18:14.339Z,18.57
2022-11-10T10:21:21.498Z,18.52
2022-11-10T10:24:16.488Z,18.47
2022-11-10T10:27:10.912Z,18.77
2022-11-10T10:29:56.233Z,18.88
2022-11-10T10:32:42.605Z,18.71
2022-11-10T10:35:28.518Z,18.67
2022-11-10T10:38:24.839Z,18.68
2022-11-10T10:41:24.653Z,18.73
2022-11-10T10:44:14.546Z,18.63
2022-11-10T10:47:03.117Z,18.37
2022-11-10T10:49:48.419Z,18.09
2022-11-10T10:52:33.731Z,17.97
2022-11-10T10:55:19.056Z,17.76
2022-11-10T10:58:25.036Z,17.52
2022-11-10T11:01:16.667Z,17.45
2022-11-10T11:04:27.492Z,17.23
2022-11-10T11:07:25.643Z,17.15
2022-11-10T11:10:20.785Z,17.09
2022-11-10T11:13:13.499Z,17.18
2022-11-10T11:16:04.594Z,17.03
2022-11-10T11:18:50.733Z,17.15
2022-11-10T11:22:03.108Z,17.14
2022-11-10T11:25:01.446Z,16.98
2022-11-10T11:27:58.920Z,16.86
2022-11-10T11:31:03.510Z,17.02
2022-11-10T11:34:13.855Z,16.94
2022-11-10T11:37:13.069Z,16.95
2022-11-10T11:40:10.757Z,16.98
2022-11-10T11:43:02.595Z,17.00
2022-11-10T11:46:32.847Z,16.87
2022-11-10T11:49:36.724Z,16.65
2022-11-10T11:52:22.223Z,16.56
2022-11-10T11:55:37.003Z,16.35
2022-11-10T11:58:22.844Z,16.33
2022-11-10T12:01:37.191Z,16.41
2022-11-10T12:05:00.652Z,16.52
2022-11-10T12:07:57.763Z,16.59
2022-11-10T12:11:11.282Z,16.60
2022-11-10T12:14:06.379Z,16.56
2022-11-10T12:17:12.919Z,16.42
2022-11-10T12:20:50.042Z,16.65
2022-11-10T12:23:54.008Z,16.69
2022-11-10T12:26:39.553Z,16.53
2022-11-10T12:29:39.974Z,16.54
2022-11-10T12:32:32.519Z,16.55
2022-11-10T12:35:23.650Z,16.53
2022-11-10T12:38:16.860Z,16.43
2022-11-10T12:41:06.975Z,16.52
2022-11-10T12:44:14.749Z,16.52
2022-11-10T12:47:03.503Z,16.47
2022-11-10T12:50:30.801Z,16.46
2022-11-10T12:53:23.258Z,16.48
2022-11-10T12:56:37.005Z,16.25
2022-11-10T12:59:26.751Z,16.16
2022-11-10T13:02:15.124Z,16.13
2022-11-10T13:05:18.988Z,16.40
2022-11-10T13:08:27.525Z,16.44
2022-11-10T13:11:12.778Z,16.39
2022-11-10T13:14:03.332Z,16.42
2022-11-10T13:16:54.520Z,16.36
2022-11-10T13:19:40.123Z,16.29
2022-11-10T13:22:37.079Z,16.24
2022-11-10T13:25:37.842Z,16.46
2022-11-10T13:28:48.232Z,16.56
2022-11-10T13:31:33.721Z,16.39
2022-11-10T13:34:19.032Z,16.32
2022-11-10T13:37:30.122Z,16.37
2022-11-10T13:40:24.595Z,16.40
2022-11-10T13:43:25.452Z,16.35
2022-11-10T13:46:11.082Z,16.21
2022-11-10T13:49:15.811Z,16.31
2022-11-10T13:52:08.289Z,16.34
2022-11-10T13:55:15.960Z,16.22
2022-11-10T13:58:01.959Z,16.08
2022-11-10T14:01:11.681Z,16.08
2022-11-10T14:04:00.675Z,15.92
2022-11-10T14:06:51.664Z,16.12
2022-11-10T14:09:40.089Z,16.15
2022-11-10T14:12:44.447Z,16.14
2022-11-10T14:15:46.824Z,16.08
2022-11-10T14:18:49.591Z,16.14
2022-11-10T14:21:53.971Z,16.03
2022-11-10T14:25:01.984Z,16.00
2022-11-10T14:27:47.515Z,16.00
2022-11-10T14:30:33.741Z,15.94
2022-11-10T14:33:21.415Z,15.88
2022-11-10T14:36:09.228Z,15.81
2022-11-10T14:38:54.820Z,15.72
2022-11-10T14:41:51.276Z,15.69
2022-11-10T14:44:36.861Z,15.82
2022-11-10T14:47:25.227Z,15.93
2022-11-10T14:50:13.511Z,16.00
2022-11-10T14:53:19.346Z,15.88
2022-11-10T14:56:07.075Z,15.98
2022-11-10T14:58:53.308Z,15.89
2022-11-10T15:01:40.911Z,15.82
2022-11-10T15:04:29.451Z,15.75
2022-11-10T15:07:14.988Z,15.81
2022-11-10T15:10:14.515Z,15.79
2022-11-10T15:13:12.223Z,15.76
2022-11-10T15:16:29.853Z,15.69
2022-11-10T15:19:27.562Z,15.62
2022-11-10T15:22:13.821Z,15.54
2022-11-10T15:25:10.715Z,15.47
2022-11-10T15:28:13.259Z,15.38
2022-11-10T15:31:01.771Z,15.24
2022-11-10T15:33:53.527Z,15.21
2022-11-10T15:36:41.919Z,15.10
2022-11-10T15:39:28.191Z,15.10
2022-11-10T15:42:21.380Z,15.05
2022-11-10T15:45:06.814Z,14.92
2022-11-10T15:47:52.511Z,14.90
2022-11-10T15:50:37.777Z,14.83
2022-11-10T15:53:28.603Z,14.78
2022-11-10T15:56:20.257Z,14.70
2022-11-10T15:59:05.701Z,14.64
2022-11-10T16:01:52.265Z,14.57
2022-11-10T16:04:37.706Z,14.50
2022-11-10T16:07:23.733Z,14.43
2022-11-10T16:10:09.298Z,14.35
2022-11-10T16:12:55.131Z,14.31
2022-11-10T16:15:41.296Z,14.26
2022-11-10T16:18:29.538Z,14.18
2022-11-10T16:21:18.272Z,14.11
2022-11-10T16:24:04.244Z,14.01
2022-11-10T16:26:49.843Z,14.01
2022-11-10T16:29:35.968Z,13.97
2022-11-10T16:32:21.424Z,13.92
2022-11-10T16:35:11.602Z,13.86
2022-11-10T16:37:56.738Z,13.78
2022-11-10T16:40:42.038Z,13.75
2022-11-10T16:43:28.430Z,13.73
2022-11-10T16:46:19.540Z,13.71
2022-11-10T16:49:08.694Z,13.65
2022-11-10T16:51:56.358Z,13.59
2022-11-10T16:54:43.599Z,13.53
2022-11-10T16:57:33.426Z,13.51
2022-11-10T17:00:24.053Z,13.42
2022-11-10T17:03:18.576Z,13.40
2022-11-10T17:06:07.032Z,13.40
2022-11-10T17:08:54.982Z,13.38
2022-11-10T17:11:41.546Z,13.42
2022-11-10T17:14:26.666Z,13.41
2022-11-10T17:17:18.519Z,13.42
2022-11-10T17:20:05.027Z,13.35
2022-11-10T17:22:51.055Z,13.40
2022-11-10T17:25:36.622Z,13.45
2022-11-10T17:28:23.330Z,13.46
2022-11-10T17:31:12.358Z,13.51
2022-11-10T17:34:00.201Z,13.56
2022-11-10T17:36:51.732Z,13.53
2022-11-10T17:39:42.642Z,13.57
2022-11-10T17:42:30.581Z,13.56
2022-11-10T17:45:29.026Z,13.59
2022-11-10T17:48:15.757Z,13.63
2022-11-10T17:51:02.895Z,13.69
2022-11-10T17:53:51.612Z,13.65
2022-11-10T17:56:38.768Z,13.67
2022-11-10T17:59:25.641Z,13.62
2022-11-10T18:02:13.037Z,13.65
2022-11-10T18:04:59.901Z,13.74
2022-11-10T18:07:53.913Z,13.73
2022-11-10T18:10:52.101Z,13.83
2022-11-10T18:13:39.438Z,13.80
2022-11-10T18:16:36.655Z,13.88
2022-11-10T18:19:24.274Z,13.79
2022-11-10T18:22:11.623Z,13.77
2022-11-10T18:24:58.393Z,13.80
2022-11-10T18:27:45.325Z,13.85
2022-11-10T18:30:35.044Z,13.84
2022-11-10T18:33:23.641Z,13.93
2022-11-10T18:36:13.646Z,13.96
2022-11-10T18:39:00.143Z,13.99
2022-11-10T18:41:49.941Z,14.00
2022-11-10T18:44:37.783Z,14.08
2022-11-10T18:47:24.584Z,13.99
2022-11-10T18:50:11.644Z,14.03
2022-11-10T18:53:03.282Z,14.00
2022-11-10T18:55:57.450Z,14.04
2022-11-10T18:58:44.138Z,14.08
2022-11-10T19:01:31.700Z,14.19
2022-11-10T19:04:19.170Z,14.31
2022-11-10T19:07:06.976Z,14.19
2022-11-10T19:09:54.849Z,14.08
2022-11-10T19:12:41.900Z,14.17
2022-11-10T19:15:29.133Z,14.16
2022-11-10T19:18:17.149Z,14.23
2022-11-10T19:21:13.321Z,14.25
2022-11-10T19:24:00.669Z,14.22
2022-11-10T19:26:51.948Z,14.24
2022-11-10T19:29:38.758Z,13.81
2022-11-10T19:32:25.557Z,13.77
2022-11-10T19:35:14.599Z,13.92
2022-11-10T19:38:02.607Z,14.05
2022-11-10T19:40:50.217Z,14.03
2022-11-10T19:43:36.367Z,14.01
2022-11-10T19:46:29.561Z,13.89
2022-11-10T19:49:17.915Z,13.61
2022-11-10T19:52:05.168Z,13.62
2022-11-10T19:54:53.162Z,13.68
2022-11-10T19:57:38.438Z,13.77
2022-11-10T20:00:25.836Z,13.65
2022-11-10T20:03:11.599Z,13.77
2022-11-10T20:06:02.157Z,13.67
2022-11-10T20:08:48.725Z,13.70
2022-11-10T20:11:34.363Z,13.81
2022-11-10T20:14:25.498Z,13.94
2022-11-10T20:17:11.037Z,14.01
2022-11-10T20:19:57.450Z,14.00
2022-11-10T20:22:42.843Z,13.97
2022-11-10T20:25:36.414Z,13.90
2022-11-10T20:28:23.149Z,13.93
2022-11-10T20:31:11.273Z,13.86
2022-11-10T20:33:56.831Z,13.83
2022-11-10T20:36:42.259Z,13.81
2022-11-10T20:39:27.488Z,13.91
2022-11-10T20:42:13.569Z,13.92
2022-11-10T20:44:59.204Z,13.77
2022-11-10T20:47:44.616Z,13.93
2022-11-10T20:50:30.001Z,13.86
2022-11-10T20:53:15.472Z,13.83
2022-11-10T20:56:02.215Z,13.81
2022-11-10T20:58:47.870Z,13.69
2022-11-10T21:01:33.822Z,13.58
2022-11-10T21:04:19.499Z,13.64
2022-11-10T21:07:05.274Z,13.55
2022-11-10T21:09:50.861Z,13.70
2022-11-10T21:12:51.439Z,13.61
2022-11-10T21:15:39.378Z,13.70
2022-11-10T21:18:26.844Z,13.85
2022-11-10T21:21:20.967Z,13.66
2022-11-10T21:24:07.288Z,13.68
2022-11-10T21:26:52.290Z,13.73
2022-11-10T21:29:38.022Z,13.82
2022-11-10T21:32:23.450Z,13.89
2022-11-10T21:35:09.120Z,13.58
2022-11-10T21:37:54.469Z,13.68
2022-11-10T21:40:39.927Z,13.68
2022-11-10T21:43:25.483Z,13.65
2022-11-10T21:46:11.323Z,13.67
2022-11-10T21:48:56.692Z,13.66
2022-11-10T21:51:42.783Z,13.43
2022-11-10T21:54:28.020Z,13.29
2022-11-10T21:57:13.442Z,13.29
2022-11-10T21:59:58.882Z,13.19
2022-11-10T22:02:44.388Z,13.18
2022-11-10T22:05:29.804Z,13.17
2022-11-10T22:08:18.402Z,13.13
2022-11-10T22:11:35.375Z,13.09
2022-11-10T22:14:39.272Z,13.10
2022-11-10T22:17:43.563Z,13.02
2022-11-10T22:20:29.469Z,13.03
2022-11-10T22:23:14.961Z,13.00
2022-11-10T22:26:00.416Z,13.06
2022-11-10T22:28:46.002Z,13.12
2022-11-10T22:31:33.190Z,13.11
2022-11-10T22:34:19.189Z,13.04
2022-11-10T22:37:04.397Z,13.09
2022-11-10T22:40:08.319Z,13.07
2022-11-10T22:43:12.099Z,13.01
2022-11-10T22:45:57.521Z,13.02
2022-11-10T22:48:43.920Z,12.96
2022-11-10T22:51:30.488Z,12.94
2022-11-10T22:54:20.560Z,12.92
2022-11-10T22:57:05.553Z,12.81
2022-11-10T22:59:51.056Z,12.76
2022-11-10T23:02:36.198Z,12.73
2022-11-10T23:05:21.687Z,12.67
2022-11-10T23:08:07.468Z,12.66
2022-11-10T23:11:04.647Z,12.46
2022-11-10T23:13:51.218Z,12.49
2022-11-10T23:16:36.697Z,12.45
2022-11-10T23:19:21.933Z,12.49
2022-11-10T23:22:07.279Z,12.46
2022-11-10T23:24:56.959Z,12.40
2022-11-10T23:27:43.057Z,12.42
2022-11-10T23:30:28.344Z,12.42
2022-11-10T23:33:13.550Z,12.42
2022-11-10T23:35:58.847Z,12.43
2022-11-10T23:38:45.029Z,12.41
2022-11-10T23:41:30.713Z,12.33
2022-11-10T23:44:18.975Z,12.36
2022-11-10T23:47:04.230Z,12.33
2022-11-10T23:49:49.663Z,12.35
2022-11-10T23:52:34.926Z,12.28
2022-11-10T23:55:20.356Z,12.23
2022-11-10T23:58:05.490Z,12.20
